»·PEaware :: N262SA KSBA-KBUR

N262SA :: KSBA-KBUR

FLIGHT INFORMATION

Flight Status: Arrived
Operator: Privately registered:
United States
More flights under this callsign
Pilot: Alexander G. (30337)
Aircraft: PIPER PA-28 CHEROKEE ARCHER
(P28A)
More flights by this aircraft type
Origin: KSBA Santa Barbara Mun
United States
Destination: KBUR Bob Hope-Burbank
United States
More flights between these airports :: More routes between these airports
Route: CAT-08
File this flight plan on PilotEdge
Remarks:
Altitude:
(Current/Filed)
7,500ft
Speed:
(Current/Filed)
110kts
Departed: 28-Jul-20 11:28 AM
Arrived: 28-Jul-20 12:10 PM
Distance/Time
Traveled:
75nm/0:42
Distance/Time
To Go:
Arrived

Flight Plot

Page will automatically refresh every two minutes.


Map Options




Map Legend


Flown Route
Filed Route
Departure Airport
Arrival Airport
Navaid (VOR, NDB)
Fix

Horizontal Profiles

Position Reports

Time Latitude Longitude Heading Altitude Ground
Speed
28-Jul-20 11:14 34.422661 -119.835592 340 8ft 0kts
28-Jul-20 11:15 34.422661 -119.835592 340 8ft 0kts
28-Jul-20 11:16 34.422661 -119.835592 340 8ft 0kts
28-Jul-20 11:17 34.422661 -119.835592 340 8ft 0kts
28-Jul-20 11:18 34.422661 -119.835592 340 8ft 0kts
28-Jul-20 11:19 34.422661 -119.835592 340 8ft 0kts
28-Jul-20 11:20 34.422661 -119.835592 340 8ft 0kts
28-Jul-20 11:21 34.422788 -119.835821 302 8ft 9kts
28-Jul-20 11:22 34.425307 -119.837918 346 10ft 25kts
28-Jul-20 11:23 34.427068 -119.838473 346 9ft 4kts
28-Jul-20 11:24 34.430670 -119.839803 276 11ft 3kts
28-Jul-20 11:25 34.430670 -119.839807 275 11ft 0kts
28-Jul-20 11:26 34.429646 -119.840036 165 11ft 33kts
28-Jul-20 11:27 34.407212 -119.832593 162 548ft 106kts
28-Jul-20 11:29 34.379008 -119.819573 119 1007ft 108kts
28-Jul-20 11:30 34.373668 -119.786111 97 1802ft 99kts
28-Jul-20 11:31 34.369986 -119.754664 96 2681ft 90kts
28-Jul-20 11:32 34.366609 -119.725937 96 3568ft 83kts
28-Jul-20 11:33 34.363446 -119.699494 96 4450ft 76kts
28-Jul-20 11:34 34.360567 -119.676295 96 5315ft 62kts
28-Jul-20 11:35 34.359331 -119.654366 96 5806ft 88kts
28-Jul-20 11:36 34.355767 -119.622303 96 6330ft 97kts
28-Jul-20 11:37 34.352119 -119.589827 96 6934ft 97kts
28-Jul-20 11:38 34.348459 -119.557318 96 7535ft 97kts
28-Jul-20 11:39 34.344810 -119.524956 96 8134ft 97kts
28-Jul-20 11:40 34.340880 -119.486034 95 7461ft 125kts
28-Jul-20 11:41 34.336316 -119.445648 96 7466ft 119kts
28-Jul-20 11:42 34.331976 -119.407977 96 7461ft 104kts
28-Jul-20 11:42 34.328819 -119.380124 96 7465ft 98kts
28-Jul-20 11:44 34.324545 -119.342579 97 7469ft 96kts
28-Jul-20 11:45 34.320922 -119.310806 97 7494ft 96kts
28-Jul-20 11:45 34.317879 -119.284039 97 7493ft 96kts
28-Jul-20 11:47 34.313558 -119.246068 96 7500ft 105kts
28-Jul-20 11:47 34.309788 -119.214136 97 7494ft 118kts
28-Jul-20 11:48 34.305176 -119.174408 97 7493ft 119kts
28-Jul-20 11:50 34.299793 -119.127937 97 7493ft 119kts
28-Jul-20 11:50 34.295963 -119.094839 97 7493ft 119kts
28-Jul-20 11:51 34.290856 -119.055121 98 7493ft 119kts
28-Jul-20 11:52 34.285682 -119.015385 98 7493ft 119kts
28-Jul-20 11:53 34.280525 -118.975731 98 7493ft 119kts
28-Jul-20 11:54 34.275366 -118.936027 98 7493ft 119kts
28-Jul-20 11:55 34.270218 -118.896371 98 7493ft 119kts
28-Jul-20 11:56 34.265074 -118.856704 98 7493ft 119kts
28-Jul-20 11:57 34.259925 -118.816952 98 7493ft 119kts
28-Jul-20 11:58 34.254788 -118.777258 98 7493ft 119kts
28-Jul-20 11:59 34.249473 -118.738555 98 7488ft 108kts
28-Jul-20 12:00 34.244589 -118.704046 98 7491ft 102kts
28-Jul-20 12:01 34.239245 -118.665772 98 6929ft 121kts
28-Jul-20 12:02 34.233683 -118.625384 98 6331ft 122kts
28-Jul-20 12:03 34.228148 -118.585129 98 5733ft 121kts
28-Jul-20 12:04 34.222317 -118.544793 108 5128ft 121kts
28-Jul-20 12:05 34.207440 -118.506291 114 4133ft 132kts
28-Jul-20 12:06 34.198688 -118.463613 95 2933ft 132kts
28-Jul-20 12:07 34.198386 -118.420077 85 1776ft 122kts
28-Jul-20 12:08 34.198263 -118.383987 91 1133ft 78kts
28-Jul-20 12:09 34.197775 -118.361284 90 715ft 38kts
28-Jul-20 12:10 34.198609 -118.360252 358 715ft 0kts
28-Jul-20 12:11 34.198895 -118.359328 91 714ft 16kts
28-Jul-20 12:12 34.201641 -118.358731 312 724ft 11kts
28-Jul-20 12:13 34.200341 -118.359343 166 720ft 0kts

Navigation Log

Ident Type
Flight plan parsing failed, navigation log unavailable